地図

経路データ

SID SEASON NUMBER BASIN SUBBASIN NAME ISO_TIME NATURE LAT LON WMO_WIND WMO_PRES WMO_AGENCY TRACK_TYPE DIST2LAND LANDFALL IFLAG USA_AGENCY USA_ATCF_ID USA_LAT USA_LON USA_RECORD USA_STATUS USA_WIND USA_PRES USA_SSHS USA_R34_NE USA_R34_SE USA_R34_SW USA_R34_NW USA_R50_NE USA_R50_SE USA_R50_SW USA_R50_NW USA_R64_NE USA_R64_SE USA_R64_SW USA_R64_NW USA_POCI USA_ROCI USA_RMW USA_EYE TOKYO_LAT TOKYO_LON TOKYO_GRADE TOKYO_WIND TOKYO_PRES TOKYO_R50_DIR TOKYO_R50_LONG TOKYO_R50_SHORT TOKYO_R30_DIR TOKYO_R30_LONG TOKYO_R30_SHORT TOKYO_LAND CMA_LAT CMA_LON CMA_CAT CMA_WIND CMA_PRES HKO_LAT HKO_LON HKO_CAT HKO_WIND HKO_PRES NEWDELHI_LAT NEWDELHI_LON NEWDELHI_GRADE NEWDELHI_WIND NEWDELHI_PRES NEWDELHI_CI NEWDELHI_DP NEWDELHI_POCI REUNION_LAT REUNION_LON REUNION_TYPE REUNION_WIND REUNION_PRES REUNION_TNUM REUNION_CI REUNION_RMW REUNION_R34_NE REUNION_R34_SE REUNION_R34_SW REUNION_R34_NW REUNION_R50_NE REUNION_R50_SE REUNION_R50_SW REUNION_R50_NW REUNION_R64_NE REUNION_R64_SE REUNION_R64_SW REUNION_R64_NW BOM_LAT BOM_LON BOM_TYPE BOM_WIND BOM_PRES BOM_TNUM BOM_CI BOM_RMW BOM_R34_NE BOM_R34_SE BOM_R34_SW BOM_R34_NW BOM_R50_NE BOM_R50_SE BOM_R50_SW BOM_R50_NW BOM_R64_NE BOM_R64_SE BOM_R64_SW BOM_R64_NW BOM_ROCI BOM_POCI BOM_EYE BOM_POS_METHOD BOM_PRES_METHOD NADI_LAT NADI_LON NADI_CAT NADI_WIND NADI_PRES WELLINGTON_LAT WELLINGTON_LON WELLINGTON_WIND WELLINGTON_PRES DS824_LAT DS824_LON DS824_STAGE DS824_WIND DS824_PRES TD9636_LAT TD9636_LON TD9636_STAGE TD9636_WIND TD9636_PRES TD9635_LAT TD9635_LON TD9635_WIND TD9635_PRES TD9635_ROCI NEUMANN_LAT NEUMANN_LON NEUMANN_CLASS NEUMANN_WIND NEUMANN_PRES MLC_LAT MLC_LON MLC_CLASS MLC_WIND MLC_PRES USA_GUST BOM_GUST BOM_GUST_PER REUNION_GUST REUNION_GUST_PER USA_SEAHGT USA_SEARAD_NE USA_SEARAD_SE USA_SEARAD_SW USA_SEARAD_NW STORM_SPEED STORM_DIR
1937292N35315 1937 57 NA NA NOT_NAMED 1937-10-18 12:00:00 ET 35.4000 -45.3000 45 hurdat_atl main 1408 1344 O_____________ hurdat_atl AL111937 35.4000 -45.3000 EX 45 -4 16 295
1937292N35315 1937 57 NA NA NOT_NAMED 1937-10-18 15:00:00 ET 35.7514 -46.2059 main 1334 1272 P_____________ AL111937 35.7514 -46.2059 EX 50 -4 16 296
1937292N35315 1937 57 NA NA NOT_NAMED 1937-10-18 18:00:00 ET 36.1000 -47.1000 55 hurdat_atl main 1272 1216 O_____________ hurdat_atl AL111937 36.1000 -47.1000 EX 55 -4 16 296
1937292N35315 1937 57 NA NA NOT_NAMED 1937-10-18 21:00:00 ET 36.4494 -47.9657 main 1213 1148 P_____________ AL111937 36.4494 -47.9657 EX 60 -4 15 297
1937292N35315 1937 57 NA NA NOT_NAMED 1937-10-19 00:00:00 TS 36.8000 -48.8000 65 hurdat_atl main 1148 1086 O_____________ hurdat_atl AL111937 36.8000 -48.8000 HU 65 1 15 299
1937292N35315 1937 57 NA NA NOT_NAMED 1937-10-19 03:00:00 TS 37.1796 -49.6222 main 1086 1037 P_____________ AL111937 37.1796 -49.6222 HU 67 1 15 299
1937292N35315 1937 57 NA NA NOT_NAMED 1937-10-19 06:00:00 TS 37.5000 -50.4000 70 hurdat_atl main 1037 1004 O_____________ hurdat_atl AL111937 37.5000 -50.4000 HU 70 1 13 293
1937292N35315 1937 57 NA NA NOT_NAMED 1937-10-19 09:00:00 TS 37.6870 -51.1310 main 1004 985 P_____________ AL111937 37.6870 -51.1310 HU 70 1 11 285
1937292N35315 1937 57 NA NA NOT_NAMED 1937-10-19 12:00:00 TS 37.8000 -51.8000 70 hurdat_atl main 985 969 O_____________ hurdat_atl AL111937 37.8000 -51.8000 HU 70 1 10 282
1937292N35315 1937 57 NA NA NOT_NAMED 1937-10-19 15:00:00 TS 37.9072 -52.4304 main 969 956 P_____________ AL111937 37.9072 -52.4304 HU 67 1 10 282
1937292N35315 1937 57 NA NA NOT_NAMED 1937-10-19 18:00:00 TS 38.0000 -53.0000 65 hurdat_atl main 956 945 O_____________ hurdat_atl AL111937 38.0000 -53.0000 HU 65 1 9 283
1937292N35315 1937 57 NA NA NOT_NAMED 1937-10-19 21:00:00 TS 38.0996 -53.5152 main 945 934 P_____________ AL111937 38.0996 -53.5152 HU 62 0 8 284
1937292N35315 1937 57 NA NA NOT_NAMED 1937-10-20 00:00:00 TS 38.2000 -54.0000 60 hurdat_atl main 934 924 O_____________ hurdat_atl AL111937 38.2000 -54.0000 TS 60 0 8 284
1937292N35315 1937 57 NA NA NOT_NAMED 1937-10-20 03:00:00 TS 38.2998 -54.5001 main 925 908 P_____________ AL111937 38.2998 -54.5001 TS 57 0 8 284
1937292N35315 1937 57 NA NA NOT_NAMED 1937-10-20 06:00:00 TS 38.4000 -55.0000 55 hurdat_atl main 908 880 O_____________ hurdat_atl AL111937 38.4000 -55.0000 TS 55 0 8 284
1937292N35315 1937 57 NA NA NOT_NAMED 1937-10-20 09:00:00 TS 38.4844 -55.4707 main 876 845 P_____________ AL111937 38.4844 -55.4707 TS 52 0 8 284
1937292N35315 1937 57 NA NA NOT_NAMED 1937-10-20 12:00:00 TS 38.6000 -56.0000 50 hurdat_atl main 845 812 O_____________ hurdat_atl AL111937 38.6000 -56.0000 TS 50 0 10 286
1937292N35315 1937 57 NA NA NOT_NAMED 1937-10-20 15:00:00 TS 38.7551 -56.6707 main 798 753 P_____________ AL111937 38.7551 -56.6707 TS 47 0 12 290
1937292N35315 1937 57 NA NA NOT_NAMED 1937-10-20 18:00:00 TS 39.0000 -57.4000 45 hurdat_atl main 753 700 O_____________ hurdat_atl AL111937 39.0000 -57.4000 TS 45 0 13 299
1937292N35315 1937 57 NA NA NOT_NAMED 1937-10-20 21:00:00 TS 39.3655 -58.1079 main 690 629 P_____________ AL111937 39.3655 -58.1079 TS 42 0 13 306
1937292N35315 1937 57 NA NA NOT_NAMED 1937-10-21 00:00:00 TS 39.8000 -58.8000 40 hurdat_atl main 629 O_____________ hurdat_atl AL111937 39.8000 -58.8000 TS 40 0 14 309

IBTrACS Databaseについて

本データベースは、米国NOAAが公開する1842年以降の世界の熱帯低気圧のベストトラックデータアーカイブInternational Best Track Archive for Climate Stewardship (IBTrACS)を、ウェブで閲覧しやすい形式に変換したものです。

最終更新日:2021-10-25